sensor_id;sensor_type;location;lat;lon;timestamp;temperature;humidity
23283;DHT22;11810;51.178;3.878;2023-04-25T00:01:40;9.90;99.90
23283;DHT22;11810;51.178;3.878;2023-04-25T00:04:06;9.70;99.90
23283;DHT22;11810;51.178;3.878;2023-04-25T00:06:34;9.70;99.90
23283;DHT22;11810;51.178;3.878;2023-04-25T00:09:03;9.50;99.90
23283;DHT22;11810;51.178;3.878;2023-04-25T00:11:29;9.60;99.90
23283;DHT22;11810;51.178;3.878;2023-04-25T00:13:56;9.60;99.90
23283;DHT22;11810;51.178;3.878;2023-04-25T00:16:22;9.50;99.90
23283;DHT22;11810;51.178;3.878;2023-04-25T00:18:49;9.50;99.90
23283;DHT22;11810;51.178;3.878;2023-04-25T00:21:19;9.50;99.90
23283;DHT22;11810;51.178;3.878;2023-04-25T00:23:46;9.60;99.90
23283;DHT22;11810;51.178;3.878;2023-04-25T00:26:12;9.50;99.90
23283;DHT22;11810;51.178;3.878;2023-04-25T00:28:39;9.40;99.90
23283;DHT22;11810;51.178;3.878;2023-04-25T00:31:06;9.30;99.90
23283;DHT22;11810;51.178;3.878;2023-04-25T00:33:32;9.40;99.90
23283;DHT22;11810;51.178;3.878;2023-04-25T00:35:57;9.50;99.90
23283;DHT22;11810;51.178;3.878;2023-04-25T00:38:24;9.70;99.90
23283;DHT22;11810;51.178;3.878;2023-04-25T00:40:49;9.70;99.90
23283;DHT22;11810;51.178;3.878;2023-04-25T00:43:15;9.60;99.90
23283;DHT22;11810;51.178;3.878;2023-04-25T00:45:43;9.60;99.90
23283;DHT22;11810;51.178;3.878;2023-04-25T00:48:09;9.60;99.90
23283;DHT22;11810;51.178;3.878;2023-04-25T00:50:36;9.80;99.90
23283;DHT22;11810;51.178;3.878;2023-04-25T00:53:02;9.80;99.90
23283;DHT22;11810;51.178;3.878;2023-04-25T00:55:29;9.80;99.90
23283;DHT22;11810;51.178;3.878;2023-04-25T00:57:57;9.70;99.90
23283;DHT22;11810;51.178;3.878;2023-04-25T01:00:23;9.60;99.90
23283;DHT22;11810;51.178;3.878;2023-04-25T01:02:49;9.70;99.90
23283;DHT22;11810;51.178;3.878;2023-04-25T01:05:16;9.60;99.90
23283;DHT22;11810;51.178;3.878;2023-04-25T01:07:45;9.70;99.90
23283;DHT22;11810;51.178;3.878;2023-04-25T01:10:11;9.60;99.90
23283;DHT22;11810;51.178;3.878;2023-04-25T01:12:37;9.60;99.90
23283;DHT22;11810;51.178;3.878;2023-04-25T01:15:03;9.50;99.90
23283;DHT22;11810;51.178;3.878;2023-04-25T01:17:29;9.50;99.90
23283;DHT22;11810;51.178;3.878;2023-04-25T01:19:57;9.40;99.90
23283;DHT22;11810;51.178;3.878;2023-04-25T01:22:23;9.40;99.90
23283;DHT22;11810;51.178;3.878;2023-04-25T01:24:49;9.40;99.90
23283;DHT22;11810;51.178;3.878;2023-04-25T01:27:15;9.50;99.90
23283;DHT22;11810;51.178;3.878;2023-04-25T01:29:41;9.50;99.90
23283;DHT22;11810;51.178;3.878;2023-04-25T01:32:08;9.60;99.90
23283;DHT22;11810;51.178;3.878;2023-04-25T01:34:34;9.60;99.90
23283;DHT22;11810;51.178;3.878;2023-04-25T01:37:01;9.30;99.90
23283;DHT22;11810;51.178;3.878;2023-04-25T01:39:30;9.00;99.90
23283;DHT22;11810;51.178;3.878;2023-04-25T01:41:56;8.80;99.90
23283;DHT22;11810;51.178;3.878;2023-04-25T01:44:22;9.00;99.90
23283;DHT22;11810;51.178;3.878;2023-04-25T01:46:48;8.70;99.90
23283;DHT22;11810;51.178;3.878;2023-04-25T01:49:14;8.70;99.90
23283;DHT22;11810;51.178;3.878;2023-04-25T01:52:41;8.70;99.90
23283;DHT22;11810;51.178;3.878;2023-04-25T01:55:07;8.70;99.90
23283;DHT22;11810;51.178;3.878;2023-04-25T01:57:33;8.50;99.90
23283;DHT22;11810;51.178;3.878;2023-04-25T02:00:01;8.40;99.90
23283;DHT22;11810;51.178;3.878;2023-04-25T02:02:28;8.50;99.90
23283;DHT22;11810;51.178;3.878;2023-04-25T02:04:54;8.40;99.90
23283;DHT22;11810;51.178;3.878;2023-04-25T02:07:20;8.20;99.90
23283;DHT22;11810;51.178;3.878;2023-04-25T02:09:46;8.30;99.90
23283;DHT22;11810;51.178;3.878;2023-04-25T02:12:12;8.40;99.90
23283;DHT22;11810;51.178;3.878;2023-04-25T02:14:39;8.30;99.90
23283;DHT22;11810;51.178;3.878;2023-04-25T02:17:05;8.40;99.90
23283;DHT22;11810;51.178;3.878;2023-04-25T02:19:31;8.50;99.90
23283;DHT22;11810;51.178;3.878;2023-04-25T02:21:57;8.40;99.90
23283;DHT22;11810;51.178;3.878;2023-04-25T02:24:23;8.30;99.90
23283;DHT22;11810;51.178;3.878;2023-04-25T02:26:49;8.20;99.90
23283;DHT22;11810;51.178;3.878;2023-04-25T02:29:16;7.90;99.90
23283;DHT22;11810;51.178;3.878;2023-04-25T02:31:42;7.70;99.90
23283;DHT22;11810;51.178;3.878;2023-04-25T02:34:08;7.70;99.90
23283;DHT22;11810;51.178;3.878;2023-04-25T02:36:34;7.60;99.90
23283;DHT22;11810;51.178;3.878;2023-04-25T02:39:01;7.50;99.90
23283;DHT22;11810;51.178;3.878;2023-04-25T02:41:28;7.50;99.90
23283;DHT22;11810;51.178;3.878;2023-04-25T02:43:54;7.60;99.90
23283;DHT22;11810;51.178;3.878;2023-04-25T02:46:21;7.60;99.90
23283;DHT22;11810;51.178;3.878;2023-04-25T02:48:46;7.70;99.90
23283;DHT22;11810;51.178;3.878;2023-04-25T02:51:12;7.70;99.90
23283;DHT22;11810;51.178;3.878;2023-04-25T02:53:39;7.60;99.90
23283;DHT22;11810;51.178;3.878;2023-04-25T02:56:05;7.70;99.90
23283;DHT22;11810;51.178;3.878;2023-04-25T02:58:31;7.60;99.90
23283;DHT22;11810;51.178;3.878;2023-04-25T03:00:57;7.60;99.90
23283;DHT22;11810;51.178;3.878;2023-04-25T03:03:23;7.70;99.90
23283;DHT22;11810;51.178;3.878;2023-04-25T03:05:50;7.80;99.90
23283;DHT22;11810;51.178;3.878;2023-04-25T03:08:17;8.10;99.90
23283;DHT22;11810;51.178;3.878;2023-04-25T03:10:44;8.10;99.90
23283;DHT22;11810;51.178;3.878;2023-04-25T03:13:10;8.20;99.90
23283;DHT22;11810;51.178;3.878;2023-04-25T03:15:36;8.00;99.90
23283;DHT22;11810;51.178;3.878;2023-04-25T03:18:02;8.20;99.90
23283;DHT22;11810;51.178;3.878;2023-04-25T03:20:28;8.10;99.90
23283;DHT22;11810;51.178;3.878;2023-04-25T03:22:56;8.20;99.90
23283;DHT22;11810;51.178;3.878;2023-04-25T03:25:22;8.20;99.90
23283;DHT22;11810;51.178;3.878;2023-04-25T03:27:48;8.10;99.90
23283;DHT22;11810;51.178;3.878;2023-04-25T03:30:14;8.10;99.90
23283;DHT22;11810;51.178;3.878;2023-04-25T03:32:40;8.00;99.90
23283;DHT22;11810;51.178;3.878;2023-04-25T03:35:06;8.00;99.90
23283;DHT22;11810;51.178;3.878;2023-04-25T03:37:32;7.90;99.90
23283;DHT22;11810;51.178;3.878;2023-04-25T03:39:58;7.80;99.90
23283;DHT22;11810;51.178;3.878;2023-04-25T03:42:24;7.90;99.90
23283;DHT22;11810;51.178;3.878;2023-04-25T03:44:51;7.80;99.90
23283;DHT22;11810;51.178;3.878;2023-04-25T03:47:17;7.70;99.90
23283;DHT22;11810;51.178;3.878;2023-04-25T03:49:43;7.60;99.90
23283;DHT22;11810;51.178;3.878;2023-04-25T03:52:10;7.60;99.90
23283;DHT22;11810;51.178;3.878;2023-04-25T03:54:36;7.60;99.90
23283;DHT22;11810;51.178;3.878;2023-04-25T03:57:02;7.80;99.90
23283;DHT22;11810;51.178;3.878;2023-04-25T03:59:28;7.80;99.90
23283;DHT22;11810;51.178;3.878;2023-04-25T04:01:54;7.80;99.90
23283;DHT22;11810;51.178;3.878;2023-04-25T04:04:20;7.90;99.90
23283;DHT22;11810;51.178;3.878;2023-04-25T04:06:46;7.70;99.90
23283;DHT22;11810;51.178;3.878;2023-04-25T04:09:12;7.70;99.90
23283;DHT22;11810;51.178;3.878;2023-04-25T04:11:39;7.80;99.90
23283;DHT22;11810;51.178;3.878;2023-04-25T04:14:06;7.60;99.90
23283;DHT22;11810;51.178;3.878;2023-04-25T04:16:32;7.60;99.90
23283;DHT22;11810;51.178;3.878;2023-04-25T04:18:58;7.50;99.90
23283;DHT22;11810;51.178;3.878;2023-04-25T04:21:24;7.70;99.90
23283;DHT22;11810;51.178;3.878;2023-04-25T04:23:50;7.50;99.90
23283;DHT22;11810;51.178;3.878;2023-04-25T04:26:16;7.60;99.90
23283;DHT22;11810;51.178;3.878;2023-04-25T04:28:43;7.70;99.90
23283;DHT22;11810;51.178;3.878;2023-04-25T04:31:10;7.60;99.90
23283;DHT22;11810;51.178;3.878;2023-04-25T04:33:36;7.40;99.90
23283;DHT22;11810;51.178;3.878;2023-04-25T04:36:03;7.20;99.90
23283;DHT22;11810;51.178;3.878;2023-04-25T04:38:30;7.10;99.90
23283;DHT22;11810;51.178;3.878;2023-04-25T04:40:56;7.00;99.90
23283;DHT22;11810;51.178;3.878;2023-04-25T04:43:22;6.80;99.90
23283;DHT22;11810;51.178;3.878;2023-04-25T04:45:48;6.80;99.90
23283;DHT22;11810;51.178;3.878;2023-04-25T04:48:16;6.70;99.90
23283;DHT22;11810;51.178;3.878;2023-04-25T04:50:45;6.80;99.90
23283;DHT22;11810;51.178;3.878;2023-04-25T04:53:11;6.80;99.90
23283;DHT22;11810;51.178;3.878;2023-04-25T04:55:37;6.80;99.90
23283;DHT22;11810;51.178;3.878;2023-04-25T04:58:03;7.00;99.90
23283;DHT22;11810;51.178;3.878;2023-04-25T05:00:29;7.10;99.90
23283;DHT22;11810;51.178;3.878;2023-04-25T05:02:55;7.20;99.90
23283;DHT22;11810;51.178;3.878;2023-04-25T05:05:22;7.30;99.90
23283;DHT22;11810;51.178;3.878;2023-04-25T05:07:47;7.40;99.90
23283;DHT22;11810;51.178;3.878;2023-04-25T05:10:13;7.40;99.90
23283;DHT22;11810;51.178;3.878;2023-04-25T05:12:39;7.40;99.90
23283;DHT22;11810;51.178;3.878;2023-04-25T05:15:06;7.60;99.90
23283;DHT22;11810;51.178;3.878;2023-04-25T05:17:32;7.70;99.90
23283;DHT22;11810;51.178;3.878;2023-04-25T05:19:58;7.80;99.90
23283;DHT22;11810;51.178;3.878;2023-04-25T05:22:24;8.00;99.90
23283;DHT22;11810;51.178;3.878;2023-04-25T05:24:50;8.00;99.90
23283;DHT22;11810;51.178;3.878;2023-04-25T05:27:17;8.00;99.90
23283;DHT22;11810;51.178;3.878;2023-04-25T05:29:44;8.00;99.90
23283;DHT22;11810;51.178;3.878;2023-04-25T05:32:10;8.20;99.90
23283;DHT22;11810;51.178;3.878;2023-04-25T05:34:36;8.30;99.90
23283;DHT22;11810;51.178;3.878;2023-04-25T05:37:03;8.30;99.90
23283;DHT22;11810;51.178;3.878;2023-04-25T05:39:29;8.40;99.90
23283;DHT22;11810;51.178;3.878;2023-04-25T05:41:55;8.40;99.90
23283;DHT22;11810;51.178;3.878;2023-04-25T05:44:21;8.30;99.90
23283;DHT22;11810;51.178;3.878;2023-04-25T05:46:47;8.60;99.90
23283;DHT22;11810;51.178;3.878;2023-04-25T05:49:13;8.50;99.90
23283;DHT22;11810;51.178;3.878;2023-04-25T05:51:39;8.50;99.90
23283;DHT22;11810;51.178;3.878;2023-04-25T05:54:05;8.60;99.90
23283;DHT22;11810;51.178;3.878;2023-04-25T05:56:31;8.60;99.90
23283;DHT22;11810;51.178;3.878;2023-04-25T05:58:57;8.70;99.90
23283;DHT22;11810;51.178;3.878;2023-04-25T06:01:23;9.10;99.90
23283;DHT22;11810;51.178;3.878;2023-04-25T06:03:49;9.20;99.90
23283;DHT22;11810;51.178;3.878;2023-04-25T06:06:15;9.30;99.90
23283;DHT22;11810;51.178;3.878;2023-04-25T06:08:41;9.10;99.90
23283;DHT22;11810;51.178;3.878;2023-04-25T06:11:07;9.30;99.90
23283;DHT22;11810;51.178;3.878;2023-04-25T06:13:33;9.40;99.90
23283;DHT22;11810;51.178;3.878;2023-04-25T06:15:59;9.20;99.90
23283;DHT22;11810;51.178;3.878;2023-04-25T06:18:25;9.30;99.90
23283;DHT22;11810;51.178;3.878;2023-04-25T06:20:50;9.20;99.90
23283;DHT22;11810;51.178;3.878;2023-04-25T06:23:16;9.10;99.90
23283;DHT22;11810;51.178;3.878;2023-04-25T06:25:42;9.00;99.90
23283;DHT22;11810;51.178;3.878;2023-04-25T06:28:08;9.00;99.90
23283;DHT22;11810;51.178;3.878;2023-04-25T06:30:34;9.10;99.90
23283;DHT22;11810;51.178;3.878;2023-04-25T06:33:00;9.10;99.90
23283;DHT22;11810;51.178;3.878;2023-04-25T06:35:26;9.10;99.90
23283;DHT22;11810;51.178;3.878;2023-04-25T06:37:52;9.20;99.90
23283;DHT22;11810;51.178;3.878;2023-04-25T06:40:18;9.30;99.90
23283;DHT22;11810;51.178;3.878;2023-04-25T06:42:44;9.40;99.90
23283;DHT22;11810;51.178;3.878;2023-04-25T06:45:10;9.30;99.90
23283;DHT22;11810;51.178;3.878;2023-04-25T06:47:36;9.50;99.90
23283;DHT22;11810;51.178;3.878;2023-04-25T06:50:02;9.50;99.90
23283;DHT22;11810;51.178;3.878;2023-04-25T06:52:28;9.60;99.90
23283;DHT22;11810;51.178;3.878;2023-04-25T06:54:54;9.50;99.90
23283;DHT22;11810;51.178;3.878;2023-04-25T06:57:20;9.40;99.90
23283;DHT22;11810;51.178;3.878;2023-04-25T06:59:46;9.90;99.90
23283;DHT22;11810;51.178;3.878;2023-04-25T07:02:12;11.40;99.90
23283;DHT22;11810;51.178;3.878;2023-04-25T07:04:38;12.70;99.90
23283;DHT22;11810;51.178;3.878;2023-04-25T07:07:04;13.50;99.90
23283;DHT22;11810;51.178;3.878;2023-04-25T07:09:30;14.00;99.90
23283;DHT22;11810;51.178;3.878;2023-04-25T07:11:59;14.50;99.90
23283;DHT22;11810;51.178;3.878;2023-04-25T07:14:27;15.00;99.90
23283;DHT22;11810;51.178;3.878;2023-04-25T07:16:53;15.10;99.90
23283;DHT22;11810;51.178;3.878;2023-04-25T07:19:21;15.20;99.90
23283;DHT22;11810;51.178;3.878;2023-04-25T07:21:47;15.50;99.90
23283;DHT22;11810;51.178;3.878;2023-04-25T07:24:13;15.00;99.90
23283;DHT22;11810;51.178;3.878;2023-04-25T07:26:39;14.90;99.90
23283;DHT22;11810;51.178;3.878;2023-04-25T07:29:05;15.20;99.90
23283;DHT22;11810;51.178;3.878;2023-04-25T07:31:31;15.10;99.90
23283;DHT22;11810;51.178;3.878;2023-04-25T07:33:57;13.90;99.90
23283;DHT22;11810;51.178;3.878;2023-04-25T07:36:23;13.20;99.90
23283;DHT22;11810;51.178;3.878;2023-04-25T07:38:49;12.40;99.90
23283;DHT22;11810;51.178;3.878;2023-04-25T07:41:14;11.70;99.90
23283;DHT22;11810;51.178;3.878;2023-04-25T07:43:41;12.40;99.90
23283;DHT22;11810;51.178;3.878;2023-04-25T07:46:06;13.80;99.90
23283;DHT22;11810;51.178;3.878;2023-04-25T07:48:32;14.70;99.90
23283;DHT22;11810;51.178;3.878;2023-04-25T07:50:58;15.70;99.90
23283;DHT22;11810;51.178;3.878;2023-04-25T07:53:24;15.90;99.90
23283;DHT22;11810;51.178;3.878;2023-04-25T07:55:51;16.30;99.90
23283;DHT22;11810;51.178;3.878;2023-04-25T07:58:17;16.70;99.90
23283;DHT22;11810;51.178;3.878;2023-04-25T08:00:47;17.10;99.90
23283;DHT22;11810;51.178;3.878;2023-04-25T08:03:13;17.30;99.90
23283;DHT22;11810;51.178;3.878;2023-04-25T08:05:39;17.70;99.90
23283;DHT22;11810;51.178;3.878;2023-04-25T08:08:05;17.90;99.90
23283;DHT22;11810;51.178;3.878;2023-04-25T08:10:32;17.90;99.90
23283;DHT22;11810;51.178;3.878;2023-04-25T08:12:59;17.60;99.90
23283;DHT22;11810;51.178;3.878;2023-04-25T08:15:25;17.20;99.90
23283;DHT22;11810;51.178;3.878;2023-04-25T08:17:52;16.40;99.90
23283;DHT22;11810;51.178;3.878;2023-04-25T08:20:18;16.00;99.90
23283;DHT22;11810;51.178;3.878;2023-04-25T08:22:44;15.50;99.90
23283;DHT22;11810;51.178;3.878;2023-04-25T08:25:10;15.10;99.90
23283;DHT22;11810;51.178;3.878;2023-04-25T08:27:36;14.60;99.90
23283;DHT22;11810;51.178;3.878;2023-04-25T08:30:03;14.40;99.90
23283;DHT22;11810;51.178;3.878;2023-04-25T08:32:29;14.80;99.90
23283;DHT22;11810;51.178;3.878;2023-04-25T08:34:55;15.60;99.90
23283;DHT22;11810;51.178;3.878;2023-04-25T08:37:21;15.90;99.90
23283;DHT22;11810;51.178;3.878;2023-04-25T08:39:47;16.20;99.90
23283;DHT22;11810;51.178;3.878;2023-04-25T08:42:15;17.00;99.90
23283;DHT22;11810;51.178;3.878;2023-04-25T08:44:41;17.50;99.90
23283;DHT22;11810;51.178;3.878;2023-04-25T08:47:07;17.50;99.90
23283;DHT22;11810;51.178;3.878;2023-04-25T08:49:34;17.30;99.90
23283;DHT22;11810;51.178;3.878;2023-04-25T08:52:03;17.30;99.90
23283;DHT22;11810;51.178;3.878;2023-04-25T08:54:32;17.80;99.90
23283;DHT22;11810;51.178;3.878;2023-04-25T08:57:01;18.70;99.90
23283;DHT22;11810;51.178;3.878;2023-04-25T08:59:28;19.10;99.90
23283;DHT22;11810;51.178;3.878;2023-04-25T09:01:55;18.60;99.90
23283;DHT22;11810;51.178;3.878;2023-04-25T09:04:20;17.80;99.90
23283;DHT22;11810;51.178;3.878;2023-04-25T09:06:47;16.50;99.90
23283;DHT22;11810;51.178;3.878;2023-04-25T09:09:13;15.50;99.90
23283;DHT22;11810;51.178;3.878;2023-04-25T09:11:40;14.60;99.90
23283;DHT22;11810;51.178;3.878;2023-04-25T09:14:18;13.90;99.90
23283;DHT22;11810;51.178;3.878;2023-04-25T09:21:55;11.80;99.90
23283;DHT22;11810;51.178;3.878;2023-04-25T09:27:04;11.10;99.90
23283;DHT22;11810;51.178;3.878;2023-04-25T09:29:35;10.50;99.90
23283;DHT22;11810;51.178;3.878;2023-04-25T09:32:21;9.60;99.90
23283;DHT22;11810;51.178;3.878;2023-04-25T09:34:52;9.10;99.90
23283;DHT22;11810;51.178;3.878;2023-04-25T09:37:23;9.00;99.90
23283;DHT22;11810;51.178;3.878;2023-04-25T09:39:54;9.00;99.90
23283;DHT22;11810;51.178;3.878;2023-04-25T09:42:24;9.00;99.90
23283;DHT22;11810;51.178;3.878;2023-04-25T09:44:52;9.00;99.90
23283;DHT22;11810;51.178;3.878;2023-04-25T09:47:19;9.20;99.90
23283;DHT22;11810;51.178;3.878;2023-04-25T09:49:47;9.40;99.90
23283;DHT22;11810;51.178;3.878;2023-04-25T09:52:23;9.40;99.90
23283;DHT22;11810;51.178;3.878;2023-04-25T09:54:50;9.40;99.90
23283;DHT22;11810;51.178;3.878;2023-04-25T09:57:20;9.60;99.90
23283;DHT22;11810;51.178;3.878;2023-04-25T09:59:48;10.10;99.90
23283;DHT22;11810;51.178;3.878;2023-04-25T10:02:17;10.60;99.90
23283;DHT22;11810;51.178;3.878;2023-04-25T10:04:50;11.10;99.90
23283;DHT22;11810;51.178;3.878;2023-04-25T10:07:25;11.20;99.90
23283;DHT22;11810;51.178;3.878;2023-04-25T10:09:59;11.40;99.90
23283;DHT22;11810;51.178;3.878;2023-04-25T10:12:27;11.10;99.90
23283;DHT22;11810;51.178;3.878;2023-04-25T10:14:54;10.90;99.90
23283;DHT22;11810;51.178;3.878;2023-04-25T10:17:21;10.50;99.90
23283;DHT22;11810;51.178;3.878;2023-04-25T10:19:50;10.30;99.90
23283;DHT22;11810;51.178;3.878;2023-04-25T10:22:35;10.50;99.90
23283;DHT22;11810;51.178;3.878;2023-04-25T10:25:03;10.50;99.90
23283;DHT22;11810;51.178;3.878;2023-04-25T10:27:30;10.40;99.90
23283;DHT22;11810;51.178;3.878;2023-04-25T10:30:13;10.60;99.90
23283;DHT22;11810;51.178;3.878;2023-04-25T10:32:44;10.90;99.90
23283;DHT22;11810;51.178;3.878;2023-04-25T10:35:24;11.30;99.90
23283;DHT22;11810;51.178;3.878;2023-04-25T10:40:25;12.10;99.90
23283;DHT22;11810;51.178;3.878;2023-04-25T10:42:55;12.50;99.90
23283;DHT22;11810;51.178;3.878;2023-04-25T10:45:22;12.60;99.90
23283;DHT22;11810;51.178;3.878;2023-04-25T10:47:48;13.00;99.90
23283;DHT22;11810;51.178;3.878;2023-04-25T10:50:17;13.30;99.90
23283;DHT22;11810;51.178;3.878;2023-04-25T10:52:43;14.30;99.90
23283;DHT22;11810;51.178;3.878;2023-04-25T10:55:12;14.60;99.90
23283;DHT22;11810;51.178;3.878;2023-04-25T10:57:42;15.50;99.90
23283;DHT22;11810;51.178;3.878;2023-04-25T11:00:23;17.00;99.90
23283;DHT22;11810;51.178;3.878;2023-04-25T11:02:53;17.60;99.90
23283;DHT22;11810;51.178;3.878;2023-04-25T11:05:29;17.00;99.90
23283;DHT22;11810;51.178;3.878;2023-04-25T11:07:56;16.60;99.90
23283;DHT22;11810;51.178;3.878;2023-04-25T11:10:32;17.50;99.90
23283;DHT22;11810;51.178;3.878;2023-04-25T11:12:58;18.80;99.90
23283;DHT22;11810;51.178;3.878;2023-04-25T11:15:26;19.00;99.90
23283;DHT22;11810;51.178;3.878;2023-04-25T11:17:52;17.90;99.90
23283;DHT22;11810;51.178;3.878;2023-04-25T11:20:19;16.60;99.90
23283;DHT22;11810;51.178;3.878;2023-04-25T11:22:46;15.80;99.90
23283;DHT22;11810;51.178;3.878;2023-04-25T11:25:14;15.20;99.90
23283;DHT22;11810;51.178;3.878;2023-04-25T11:30:17;15.80;99.90
23283;DHT22;11810;51.178;3.878;2023-04-25T11:32:43;15.10;99.90
23283;DHT22;11810;51.178;3.878;2023-04-25T11:35:10;14.80;99.90
23283;DHT22;11810;51.178;3.878;2023-04-25T11:37:38;14.90;99.90
23283;DHT22;11810;51.178;3.878;2023-04-25T11:40:05;15.80;99.90
23283;DHT22;11810;51.178;3.878;2023-04-25T11:42:32;16.50;99.90
23283;DHT22;11810;51.178;3.878;2023-04-25T11:44:59;16.60;99.90
23283;DHT22;11810;51.178;3.878;2023-04-25T11:47:32;16.20;99.90
23283;DHT22;11810;51.178;3.878;2023-04-25T11:49:59;16.00;99.90
23283;DHT22;11810;51.178;3.878;2023-04-25T11:52:36;16.20;99.90
23283;DHT22;11810;51.178;3.878;2023-04-25T11:55:05;16.60;99.90
23283;DHT22;11810;51.178;3.878;2023-04-25T11:57:32;17.60;99.90
23283;DHT22;11810;51.178;3.878;2023-04-25T12:00:15;16.90;99.90
23283;DHT22;11810;51.178;3.878;2023-04-25T12:02:43;16.90;99.90
23283;DHT22;11810;51.178;3.878;2023-04-25T12:05:10;16.50;99.90
23283;DHT22;11810;51.178;3.878;2023-04-25T12:07:36;17.20;99.90
23283;DHT22;11810;51.178;3.878;2023-04-25T12:10:08;17.90;99.90
23283;DHT22;11810;51.178;3.878;2023-04-25T12:12:35;17.60;99.90
23283;DHT22;11810;51.178;3.878;2023-04-25T12:15:11;16.90;99.90
23283;DHT22;11810;51.178;3.878;2023-04-25T12:17:42;16.20;99.90
23283;DHT22;11810;51.178;3.878;2023-04-25T12:20:13;16.90;99.90
23283;DHT22;11810;51.178;3.878;2023-04-25T12:22:41;17.10;99.90
23283;DHT22;11810;51.178;3.878;2023-04-25T12:28:15;18.30;99.90
23283;DHT22;11810;51.178;3.878;2023-04-25T12:31:03;18.90;99.90
23283;DHT22;11810;51.178;3.878;2023-04-25T12:33:31;19.50;99.90
23283;DHT22;11810;51.178;3.878;2023-04-25T12:35:58;19.80;99.90
23283;DHT22;11810;51.178;3.878;2023-04-25T12:40:52;17.60;99.90
23283;DHT22;11810;51.178;3.878;2023-04-25T12:43:18;16.70;99.90
23283;DHT22;11810;51.178;3.878;2023-04-25T12:45:54;16.50;99.90
23283;DHT22;11810;51.178;3.878;2023-04-25T12:48:21;17.20;99.90
23283;DHT22;11810;51.178;3.878;2023-04-25T12:50:48;17.40;99.90
23283;DHT22;11810;51.178;3.878;2023-04-25T12:53:21;16.90;99.90
23283;DHT22;11810;51.178;3.878;2023-04-25T12:55:48;16.20;99.90
23283;DHT22;11810;51.178;3.878;2023-04-25T12:58:18;15.90;99.90
23283;DHT22;11810;51.178;3.878;2023-04-25T13:00:44;15.60;99.90
23283;DHT22;11810;51.178;3.878;2023-04-25T13:03:10;15.90;99.90
23283;DHT22;11810;51.178;3.878;2023-04-25T13:05:37;16.40;99.90
23283;DHT22;11810;51.178;3.878;2023-04-25T13:08:04;16.00;99.90
23283;DHT22;11810;51.178;3.878;2023-04-25T13:10:30;15.40;99.90
23283;DHT22;11810;51.178;3.878;2023-04-25T13:12:56;15.50;99.90
23283;DHT22;11810;51.178;3.878;2023-04-25T13:15:22;15.70;99.90
23283;DHT22;11810;51.178;3.878;2023-04-25T13:17:48;15.50;99.90
23283;DHT22;11810;51.178;3.878;2023-04-25T13:20:14;15.50;99.90
23283;DHT22;11810;51.178;3.878;2023-04-25T13:22:42;16.00;99.90
23283;DHT22;11810;51.178;3.878;2023-04-25T13:25:08;16.90;99.90
23283;DHT22;11810;51.178;3.878;2023-04-25T13:27:36;16.50;99.90
23283;DHT22;11810;51.178;3.878;2023-04-25T13:30:03;15.80;99.90
23283;DHT22;11810;51.178;3.878;2023-04-25T13:32:36;15.50;99.90
23283;DHT22;11810;51.178;3.878;2023-04-25T13:35:07;15.50;99.90
23283;DHT22;11810;51.178;3.878;2023-04-25T13:37:34;15.80;99.90
23283;DHT22;11810;51.178;3.878;2023-04-25T13:40:02;16.20;99.90
23283;DHT22;11810;51.178;3.878;2023-04-25T13:42:33;16.40;99.90
23283;DHT22;11810;51.178;3.878;2023-04-25T13:44:59;16.70;99.90
23283;DHT22;11810;51.178;3.878;2023-04-25T13:47:26;16.70;99.90
23283;DHT22;11810;51.178;3.878;2023-04-25T13:49:52;16.80;99.90
23283;DHT22;11810;51.178;3.878;2023-04-25T13:52:18;16.80;99.90
23283;DHT22;11810;51.178;3.878;2023-04-25T13:54:44;16.90;99.90
23283;DHT22;11810;51.178;3.878;2023-04-25T13:57:10;16.80;99.90
23283;DHT22;11810;51.178;3.878;2023-04-25T13:59:37;16.70;99.90
23283;DHT22;11810;51.178;3.878;2023-04-25T14:02:03;17.00;99.90
23283;DHT22;11810;51.178;3.878;2023-04-25T14:04:29;17.20;99.90
23283;DHT22;11810;51.178;3.878;2023-04-25T14:06:56;17.50;99.90
23283;DHT22;11810;51.178;3.878;2023-04-25T14:09:22;17.60;99.90
23283;DHT22;11810;51.178;3.878;2023-04-25T14:11:54;17.50;99.90
23283;DHT22;11810;51.178;3.878;2023-04-25T14:14:21;17.30;99.90
23283;DHT22;11810;51.178;3.878;2023-04-25T14:16:48;17.20;99.90
23283;DHT22;11810;51.178;3.878;2023-04-25T14:19:15;16.60;99.90
23283;DHT22;11810;51.178;3.878;2023-04-25T14:21:41;15.50;99.90
23283;DHT22;11810;51.178;3.878;2023-04-25T14:24:08;14.40;99.90
23283;DHT22;11810;51.178;3.878;2023-04-25T14:26:34;14.10;99.90
23283;DHT22;11810;51.178;3.878;2023-04-25T14:29:05;13.70;99.90
23283;DHT22;11810;51.178;3.878;2023-04-25T14:31:31;14.10;99.90
23283;DHT22;11810;51.178;3.878;2023-04-25T14:33:57;14.00;99.90
23283;DHT22;11810;51.178;3.878;2023-04-25T14:36:23;14.20;99.90
23283;DHT22;11810;51.178;3.878;2023-04-25T14:38:49;14.10;99.90
23283;DHT22;11810;51.178;3.878;2023-04-25T14:41:15;14.10;99.90
23283;DHT22;11810;51.178;3.878;2023-04-25T14:43:41;14.10;99.90
23283;DHT22;11810;51.178;3.878;2023-04-25T14:46:08;13.90;99.90
23283;DHT22;11810;51.178;3.878;2023-04-25T14:48:34;13.90;99.90
23283;DHT22;11810;51.178;3.878;2023-04-25T14:51:00;14.10;99.90
23283;DHT22;11810;51.178;3.878;2023-04-25T14:53:27;14.40;99.90
23283;DHT22;11810;51.178;3.878;2023-04-25T14:55:53;14.90;99.90
23283;DHT22;11810;51.178;3.878;2023-04-25T14:58:19;14.60;99.90
23283;DHT22;11810;51.178;3.878;2023-04-25T15:00:46;14.30;99.90
23283;DHT22;11810;51.178;3.878;2023-04-25T15:03:12;14.00;99.90
23283;DHT22;11810;51.178;3.878;2023-04-25T15:05:42;13.90;99.90
23283;DHT22;11810;51.178;3.878;2023-04-25T15:08:08;14.00;99.90
23283;DHT22;11810;51.178;3.878;2023-04-25T15:10:36;13.70;99.90
23283;DHT22;11810;51.178;3.878;2023-04-25T15:13:03;13.40;99.90
23283;DHT22;11810;51.178;3.878;2023-04-25T15:15:29;13.00;99.90
23283;DHT22;11810;51.178;3.878;2023-04-25T15:17:56;12.90;99.90
23283;DHT22;11810;51.178;3.878;2023-04-25T15:20:22;13.50;99.90
23283;DHT22;11810;51.178;3.878;2023-04-25T15:22:49;14.00;99.90
23283;DHT22;11810;51.178;3.878;2023-04-25T15:25:15;14.20;99.90
23283;DHT22;11810;51.178;3.878;2023-04-25T15:27:44;14.40;99.90
23283;DHT22;11810;51.178;3.878;2023-04-25T15:30:13;13.80;99.90
23283;DHT22;11810;51.178;3.878;2023-04-25T15:32:41;13.30;99.90
23283;DHT22;11810;51.178;3.878;2023-04-25T15:35:08;13.00;99.90
23283;DHT22;11810;51.178;3.878;2023-04-25T15:37:35;13.10;99.90
23283;DHT22;11810;51.178;3.878;2023-04-25T15:40:03;13.30;99.90
23283;DHT22;11810;51.178;3.878;2023-04-25T15:42:38;13.40;99.90
23283;DHT22;11810;51.178;3.878;2023-04-25T15:45:06;14.00;99.90
23283;DHT22;11810;51.178;3.878;2023-04-25T15:47:36;14.50;99.90
23283;DHT22;11810;51.178;3.878;2023-04-25T15:50:04;14.90;99.90
23283;DHT22;11810;51.178;3.878;2023-04-25T15:52:32;14.90;99.90
23283;DHT22;11810;51.178;3.878;2023-04-25T15:54:59;15.20;99.90
23283;DHT22;11810;51.178;3.878;2023-04-25T15:57:26;14.70;99.90